createdAt,value
2023-02-28T00:00:05.540Z,100003.84
2023-02-28T00:02:32.393Z,100009.16
2023-02-28T00:04:59.163Z,100001.34
2023-02-28T00:07:25.564Z,99998.78
2023-02-28T00:09:52.024Z,99997.91
2023-02-28T00:12:18.462Z,99999.56
2023-02-28T00:14:45.044Z,99998.66
2023-02-28T00:17:11.469Z,99995.22
2023-02-28T00:19:37.963Z,100007.34
2023-02-28T00:22:04.411Z,100004.78
2023-02-28T00:24:30.857Z,100006.50
2023-02-28T00:26:57.249Z,100007.34
2023-02-28T00:29:24.201Z,100007.34
2023-02-28T00:31:50.664Z,100003.03
2023-02-28T00:34:17.169Z,100006.53
2023-02-28T00:36:43.956Z,100011.69
2023-02-28T00:39:12.645Z,100011.72
2023-02-28T00:41:39.050Z,100010.06
2023-02-28T00:44:05.484Z,100010.00
2023-02-28T00:46:32.173Z,100007.44
2023-02-28T00:48:58.767Z,100003.13
2023-02-28T00:51:25.210Z,100007.41
2023-02-28T00:53:51.677Z,100004.75
2023-02-28T00:56:18.094Z,100003.06
2023-02-28T00:58:44.569Z,100010.81
2023-02-28T01:01:11.046Z,100000.41
2023-02-28T01:03:37.600Z,100001.34
2023-02-28T01:06:03.998Z,100004.75
2023-02-28T01:08:30.418Z,100003.88
2023-02-28T01:10:57.217Z,100003.00
2023-02-28T01:13:23.628Z,100004.78
2023-02-28T01:15:50.114Z,99996.22
2023-02-28T01:18:16.571Z,99999.63
2023-02-28T01:20:43.094Z,99999.66
2023-02-28T01:23:09.588Z,100006.56
2023-02-28T01:25:36.064Z,100007.41
2023-02-28T01:28:03.752Z,100004.81
2023-02-28T01:30:30.153Z,100003.94
2023-02-28T01:32:56.650Z,100006.53
2023-02-28T01:35:23.225Z,100013.47
2023-02-28T01:37:49.579Z,100010.88
2023-02-28T01:40:16.061Z,100017.75
2023-02-28T01:42:42.508Z,100012.56
2023-02-28T01:45:08.963Z,100011.69
2023-02-28T01:47:35.402Z,100017.72
2023-02-28T01:50:01.857Z,100015.13
2023-02-28T01:52:28.289Z,100007.34
2023-02-28T01:54:54.736Z,100009.94
2023-02-28T01:57:21.151Z,100014.28
2023-02-28T01:59:47.711Z,100010.78
2023-02-28T02:02:14.574Z,100011.69
2023-02-28T02:04:41.014Z,100013.41
2023-02-28T02:07:09.833Z,100012.53
2023-02-28T02:09:36.321Z,100013.44
2023-02-28T02:12:02.855Z,100006.53
2023-02-28T02:14:29.635Z,100015.19
2023-02-28T02:16:58.418Z,100022.09
2023-02-28T02:19:24.958Z,100020.38
2023-02-28T02:21:51.530Z,100018.66
2023-02-28T02:24:18.210Z,100011.72
2023-02-28T02:26:44.686Z,100016.88
2023-02-28T02:29:11.137Z,100019.50
2023-02-28T02:31:37.589Z,100014.28
2023-02-28T02:34:04.031Z,100019.50
2023-02-28T02:36:30.461Z,100023.78
2023-02-28T02:38:57.191Z,100021.25
2023-02-28T02:41:23.645Z,100019.53
2023-02-28T02:43:50.130Z,100023.84
2023-02-28T02:46:17.002Z,100022.13
2023-02-28T02:48:43.490Z,100019.53
2023-02-28T02:51:10.069Z,100022.97
2023-02-28T02:53:36.912Z,100012.63
2023-02-28T02:56:03.333Z,100010.00
2023-02-28T02:58:29.808Z,100009.13
2023-02-28T03:00:56.262Z,100015.19
2023-02-28T03:03:22.780Z,100013.47
2023-02-28T03:05:49.508Z,100014.31
2023-02-28T03:08:15.971Z,100013.47
2023-02-28T03:10:44.708Z,100011.78
2023-02-28T03:13:11.099Z,100009.19
2023-02-28T03:15:37.560Z,100010.91
2023-02-28T03:18:04.148Z,100011.78
2023-02-28T03:20:30.614Z,100006.59
2023-02-28T03:22:57.212Z,100015.25
2023-02-28T03:25:23.657Z,100017.81
2023-02-28T03:27:50.188Z,100022.09
2023-02-28T03:30:16.622Z,100009.94
2023-02-28T03:32:43.035Z,100010.00
2023-02-28T03:35:09.461Z,100010.06
2023-02-28T03:37:35.923Z,100001.41
2023-02-28T03:40:02.593Z,100008.31
2023-02-28T03:42:29.026Z,99996.22
2023-02-28T03:44:55.713Z,99997.94
2023-02-28T03:47:23.369Z,100009.16
2023-02-28T03:49:50.861Z,99999.63
2023-02-28T03:52:17.419Z,100003.09
2023-02-28T03:54:43.960Z,100010.88
2023-02-28T03:57:10.686Z,100009.16
2023-02-28T03:59:37.130Z,100005.72
2023-02-28T04:02:03.649Z,100011.75
2023-02-28T04:04:30.149Z,100009.19
2023-02-28T04:06:56.751Z,100008.31
2023-02-28T04:09:23.352Z,100010.03
2023-02-28T04:11:49.972Z,100006.59
2023-02-28T04:14:16.445Z,100004.88
2023-02-28T04:16:42.981Z,99998.81
2023-02-28T04:19:09.681Z,100004.00
2023-02-28T04:21:36.129Z,100008.31
2023-02-28T04:24:02.652Z,100011.78
2023-02-28T04:26:29.272Z,100010.91
2023-02-28T04:28:55.673Z,100023.81
2023-02-28T04:31:30.389Z,100018.69
2023-02-28T04:33:57.207Z,100016.97
2023-02-28T04:36:23.907Z,100027.34
2023-02-28T04:38:50.458Z,100016.97
2023-02-28T04:41:16.957Z,100017.81
2023-02-28T04:43:43.454Z,100018.69
2023-02-28T04:46:09.928Z,100017.84
2023-02-28T04:48:36.436Z,100019.56
2023-02-28T04:51:02.860Z,100014.38
2023-02-28T04:53:29.303Z,100018.69
2023-02-28T04:55:55.734Z,100015.22
2023-02-28T04:58:22.231Z,100025.63
2023-02-28T05:00:48.666Z,100023.88
2023-02-28T05:03:15.456Z,100026.47
2023-02-28T05:05:43.239Z,100016.13
2023-02-28T05:08:09.746Z,100016.13
2023-02-28T05:10:36.247Z,100013.53
2023-02-28T05:13:02.624Z,100016.09
2023-02-28T05:15:29.138Z,100018.69
2023-02-28T05:17:55.763Z,100019.53
2023-02-28T05:20:22.267Z,100029.88
2023-02-28T05:22:48.769Z,100017.81
2023-02-28T05:25:15.270Z,100019.56
2023-02-28T05:27:41.705Z,100021.28
2023-02-28T05:30:08.286Z,100020.41
2023-02-28T05:32:35.457Z,100027.31
2023-02-28T05:35:02.054Z,100014.38
2023-02-28T05:37:31.214Z,100017.81
2023-02-28T05:39:57.720Z,100029.00
2023-02-28T05:42:24.584Z,100027.31
2023-02-28T05:44:52.359Z,100035.09
2023-02-28T05:47:18.997Z,100041.16
2023-02-28T05:49:45.446Z,100048.94
2023-02-28T05:52:12.897Z,100051.47
2023-02-28T05:54:39.574Z,100053.19
2023-02-28T05:57:15.515Z,100049.78
2023-02-28T05:59:49.249Z,100048.94
2023-02-28T06:02:15.751Z,100054.09
2023-02-28T06:04:42.280Z,100060.16
2023-02-28T06:07:09.141Z,100055.78
2023-02-28T06:09:35.596Z,100052.34
2023-02-28T06:12:02.045Z,100056.66
2023-02-28T06:14:29.614Z,100054.09
2023-02-28T06:16:58.553Z,100058.47
2023-02-28T06:19:25.684Z,100059.34
2023-02-28T06:21:52.120Z,100064.53
2023-02-28T06:24:18.630Z,100063.66
2023-02-28T06:26:45.107Z,100056.75
2023-02-28T06:29:11.532Z,100062.78
2023-02-28T06:31:38.080Z,100065.38
2023-02-28T06:34:04.665Z,100072.28
2023-02-28T06:36:31.033Z,100067.09
2023-02-28T06:38:57.494Z,100072.31
2023-02-28T06:41:23.908Z,100075.75
2023-02-28T06:43:50.341Z,100081.81
2023-02-28T06:46:16.842Z,100087.88
2023-02-28T06:48:43.639Z,100084.38
2023-02-28T06:51:10.053Z,100085.28
2023-02-28T06:53:36.497Z,100089.59
2023-02-28T06:56:02.910Z,100084.38
2023-02-28T06:58:29.384Z,100082.69
2023-02-28T07:01:00.573Z,100084.41
2023-02-28T07:03:27.005Z,100082.66
2023-02-28T07:05:53.480Z,100087.84
2023-02-28T07:08:19.897Z,100084.38
2023-02-28T07:10:46.320Z,100087.81
2023-02-28T07:13:12.753Z,100091.31
2023-02-28T07:15:41.720Z,100085.25
2023-02-28T07:18:09.458Z,100079.22
2023-02-28T07:20:36.483Z,100082.66
2023-02-28T07:23:02.899Z,100084.38
2023-02-28T07:25:29.450Z,100085.25
2023-02-28T07:27:59.704Z,100082.63
2023-02-28T07:30:26.293Z,100091.28
2023-02-28T07:32:52.687Z,100093.91
2023-02-28T07:35:20.666Z,100099.94
2023-02-28T07:37:47.251Z,100101.66
2023-02-28T07:40:13.830Z,100109.47
2023-02-28T07:42:40.354Z,100112.91
2023-02-28T07:45:07.113Z,100106.81
2023-02-28T07:47:33.656Z,100114.66
2023-02-28T07:50:00.120Z,100105.94
2023-02-28T07:52:26.584Z,100118.94
2023-02-28T07:54:53.108Z,100119.81
2023-02-28T07:57:19.486Z,100120.69
2023-02-28T07:59:46.212Z,100116.31
2023-02-28T08:02:12.876Z,100114.56
2023-02-28T08:04:39.365Z,100118.06
2023-02-28T08:07:08.208Z,100118.97
2023-02-28T08:09:34.682Z,100120.72
2023-02-28T08:12:01.225Z,100123.28
2023-02-28T08:14:27.695Z,100123.22
2023-02-28T08:16:54.125Z,100118.84
2023-02-28T08:19:20.498Z,100111.09
2023-02-28T08:21:47.163Z,100124.03
2023-02-28T08:24:13.569Z,100111.03
2023-02-28T08:26:40.038Z,100119.69
2023-02-28T08:29:06.423Z,100120.50
2023-02-28T08:31:33.224Z,100121.34
2023-02-28T08:33:59.734Z,100122.19
2023-02-28T08:36:26.310Z,100117.97
2023-02-28T08:38:52.806Z,100122.16
2023-02-28T08:41:20.682Z,100124.63
2023-02-28T08:43:47.180Z,100124.59
2023-02-28T08:46:13.698Z,100129.81
2023-02-28T08:48:40.134Z,100129.31
2023-02-28T08:51:08.324Z,100129.22
2023-02-28T08:53:35.387Z,100131.63
2023-02-28T08:56:02.033Z,100119.25
2023-02-28T08:58:28.360Z,100128.56
2023-02-28T09:00:54.891Z,100135.34
2023-02-28T09:03:23.668Z,100130.38
2023-02-28T09:05:50.689Z,100126.81
2023-02-28T09:08:17.110Z,100133.84
2023-02-28T09:10:43.593Z,100129.34
2023-02-28T09:13:09.968Z,100121.44
2023-02-28T09:15:36.544Z,100131.31
2023-02-28T09:18:03.273Z,100128.56
2023-02-28T09:20:29.685Z,100135.56
2023-02-28T09:22:56.208Z,100129.41
2023-02-28T09:25:23.736Z,100131.06
2023-02-28T09:27:50.268Z,100124.16
2023-02-28T09:30:16.998Z,100123.47
2023-02-28T09:32:43.363Z,100127.03
2023-02-28T09:35:09.884Z,100127.72
2023-02-28T09:37:36.323Z,100126.25
2023-02-28T09:40:02.839Z,100124.31
2023-02-28T09:42:29.300Z,100134.84
2023-02-28T09:44:55.788Z,100131.22
2023-02-28T09:47:22.224Z,100129.28
2023-02-28T09:49:48.911Z,100126.72
2023-02-28T09:52:15.424Z,100134.50
2023-02-28T09:54:41.844Z,100135.22
2023-02-28T09:57:08.333Z,100136.03
2023-02-28T09:59:34.721Z,100136.88
2023-02-28T10:02:01.608Z,100129.09
2023-02-28T10:04:28.199Z,100137.56
2023-02-28T10:06:54.973Z,100140.47
2023-02-28T10:09:21.767Z,100136.81
2023-02-28T10:11:48.282Z,100133.94
2023-02-28T10:14:14.953Z,100135.13
2023-02-28T10:16:41.652Z,100131.00
2023-02-28T10:19:08.081Z,100136.41
2023-02-28T10:21:34.552Z,100130.56
2023-02-28T10:24:01.013Z,100132.75
2023-02-28T10:26:28.281Z,100139.69
2023-02-28T10:28:54.999Z,100139.69
2023-02-28T10:31:24.137Z,100139.63
2023-02-28T10:33:51.835Z,100140.72
2023-02-28T10:36:18.880Z,100133.06
2023-02-28T10:38:45.435Z,100127.63
2023-02-28T10:41:12.276Z,100124.41
2023-02-28T10:43:41.011Z,100127.78
2023-02-28T10:46:07.702Z,100124.00
2023-02-28T10:48:34.218Z,100124.03
2023-02-28T10:51:00.904Z,100109.47
2023-02-28T10:53:27.366Z,100115.38
2023-02-28T10:55:53.933Z,100117.91
2023-02-28T10:58:20.494Z,100119.13
2023-02-28T11:00:46.977Z,100112.00
2023-02-28T11:03:13.645Z,100103.38
2023-02-28T11:05:40.223Z,100098.22
2023-02-28T11:08:06.949Z,100099.69
2023-02-28T11:10:33.581Z,100097.13
2023-02-28T11:13:01.127Z,100100.84
2023-02-28T11:15:27.855Z,100094.78
2023-02-28T11:17:54.316Z,100090.22
2023-02-28T11:20:20.789Z,100085.75
2023-02-28T11:22:47.391Z,100080.69
2023-02-28T11:25:13.865Z,100073.72
2023-02-28T11:27:40.308Z,100076.34
2023-02-28T11:30:07.129Z,100075.28
2023-02-28T11:32:33.881Z,100075.09
2023-02-28T11:35:00.538Z,100073.38
2023-02-28T11:37:27.000Z,100065.81
2023-02-28T11:39:53.537Z,100062.25
2023-02-28T11:42:20.044Z,100070.44
2023-02-28T11:44:46.516Z,100060.16
2023-02-28T11:47:12.987Z,100059.94
2023-02-28T11:49:39.408Z,100058.72
2023-02-28T11:52:05.923Z,100058.75
2023-02-28T11:54:32.449Z,100046.13
2023-02-28T11:56:59.090Z,100047.66
2023-02-28T11:59:25.642Z,100051.66
2023-02-28T12:01:52.317Z,100038.41
2023-02-28T12:04:18.747Z,100043.91
2023-02-28T12:06:45.159Z,100044.78
2023-02-28T12:09:11.678Z,100035.16
2023-02-28T12:11:38.326Z,100031.59
2023-02-28T12:14:05.349Z,100031.22
2023-02-28T12:16:31.946Z,100026.88
2023-02-28T12:18:58.431Z,100026.84
2023-02-28T12:21:24.879Z,100026.13
2023-02-28T12:23:51.354Z,100021.19
2023-02-28T12:26:17.751Z,100012.31
2023-02-28T12:28:47.147Z,100024.63
2023-02-28T12:31:13.992Z,100021.34
2023-02-28T12:33:40.791Z,100010.88
2023-02-28T12:36:07.285Z,100009.72
2023-02-28T12:38:33.910Z,100008.13
2023-02-28T12:41:00.399Z,100013.66
2023-02-28T12:43:26.916Z,100006.59
2023-02-28T12:45:53.528Z,100008.06
2023-02-28T12:48:20.098Z,100000.59
2023-02-28T12:50:46.622Z,99995.59
2023-02-28T12:53:13.134Z,99998.13
2023-02-28T12:55:39.887Z,99990.97
2023-02-28T12:58:06.385Z,99992.56
2023-02-28T13:00:32.958Z,99987.25
2023-02-28T13:03:00.715Z,99998.59
2023-02-28T13:05:28.457Z,99991.72
2023-02-28T13:07:54.893Z,100002.09
2023-02-28T13:10:21.421Z,99988.56
2023-02-28T13:12:48.176Z,99986.84
2023-02-28T13:15:14.704Z,99982.56
2023-02-28T13:17:41.098Z,99984.38
2023-02-28T13:20:07.556Z,99990.25
2023-02-28T13:22:34.038Z,99985.81
2023-02-28T13:25:00.628Z,99975.69
2023-02-28T13:27:27.082Z,99976.25
2023-02-28T13:29:53.509Z,99984.72
2023-02-28T13:32:20.071Z,99975.84
2023-02-28T13:34:46.471Z,99976.69
2023-02-28T13:37:13.183Z,99979.88
2023-02-28T13:39:39.570Z,99984.50
2023-02-28T13:42:06.052Z,99980.78
2023-02-28T13:44:32.516Z,99985.34
2023-02-28T13:46:59.046Z,99978.88
2023-02-28T13:49:26.121Z,99978.06
2023-02-28T13:51:52.676Z,99986.06
2023-02-28T13:54:19.154Z,99979.09
2023-02-28T13:56:45.974Z,99984.94
2023-02-28T13:59:12.366Z,99981.31
2023-02-28T14:01:39.647Z,99980.28
2023-02-28T14:04:06.170Z,99985.59
2023-02-28T14:06:32.900Z,99977.66
2023-02-28T14:08:59.519Z,99976.34
2023-02-28T14:11:26.197Z,99978.06
2023-02-28T14:13:52.627Z,99976.09
2023-02-28T14:16:19.259Z,99971.25
2023-02-28T14:18:45.798Z,99975.56
2023-02-28T14:21:12.278Z,99976.00
2023-02-28T14:23:38.943Z,99967.50
2023-02-28T14:26:05.656Z,99968.41
2023-02-28T14:28:32.152Z,99971.47
2023-02-28T14:30:58.769Z,99959.59
2023-02-28T14:33:25.318Z,99957.50
2023-02-28T14:35:51.798Z,99960.94
2023-02-28T14:38:18.329Z,99960.22
2023-02-28T14:40:44.839Z,99955.13
2023-02-28T14:43:11.372Z,99960.03
2023-02-28T14:45:37.843Z,99959.53
2023-02-28T14:48:04.331Z,99968.78
2023-02-28T14:50:30.840Z,99965.78
2023-02-28T14:52:58.017Z,99967.31
2023-02-28T14:55:25.486Z,99975.56
2023-02-28T14:57:51.983Z,99969.59
2023-02-28T15:00:19.839Z,99969.19
2023-02-28T15:02:46.281Z,99968.44
2023-02-28T15:05:12.757Z,99967.06
2023-02-28T15:07:39.172Z,99972.31
2023-02-28T15:10:05.730Z,99964.38
2023-02-28T15:12:32.261Z,99962.16
2023-02-28T15:14:58.678Z,99969.72
2023-02-28T15:17:25.271Z,99976.97
2023-02-28T15:19:51.948Z,99981.16
2023-02-28T15:22:18.300Z,99983.03
2023-02-28T15:24:44.726Z,99984.19
2023-02-28T15:27:11.148Z,99975.13
2023-02-28T15:29:37.863Z,99978.41
2023-02-28T15:32:04.489Z,99973.22
2023-02-28T15:34:37.002Z,99977.19
2023-02-28T15:37:07.348Z,99976.31
2023-02-28T15:39:34.229Z,99987.78
2023-02-28T15:42:00.742Z,99977.97
2023-02-28T15:44:27.260Z,99975.00
2023-02-28T15:46:54.072Z,99979.66
2023-02-28T15:49:20.511Z,99973.72
2023-02-28T15:51:47.006Z,99978.72
2023-02-28T15:54:13.437Z,99975.13
2023-02-28T15:56:40.088Z,99978.06
2023-02-28T15:59:06.542Z,99980.19
2023-02-28T16:01:33.131Z,99981.81
2023-02-28T16:03:59.646Z,99971.91
2023-02-28T16:06:26.325Z,99980.66
2023-02-28T16:08:53.361Z,99979.75
2023-02-28T16:11:20.790Z,99968.41
2023-02-28T16:13:47.243Z,99971.91
2023-02-28T16:16:13.902Z,99980.59
2023-02-28T16:18:40.440Z,99975.28
2023-02-28T16:21:06.958Z,99982.31
2023-02-28T16:23:33.339Z,99981.06
2023-02-28T16:26:00.224Z,99982.31
2023-02-28T16:28:27.189Z,99984.19
2023-02-28T16:30:53.732Z,99984.34
2023-02-28T16:33:20.224Z,99989.69
2023-02-28T16:35:46.977Z,99990.63
2023-02-28T16:38:13.493Z,99988.09
2023-02-28T16:40:39.908Z,99991.66
2023-02-28T16:43:06.432Z,99989.06
2023-02-28T16:45:32.990Z,99994.28
2023-02-28T16:47:59.672Z,99998.59
2023-02-28T16:50:26.205Z,100002.94
2023-02-28T16:52:52.721Z,99999.44
2023-02-28T16:55:19.190Z,100008.19
2023-02-28T16:57:45.604Z,99998.59
2023-02-28T17:00:12.195Z,100006.44
2023-02-28T17:02:41.290Z,100008.16
2023-02-28T17:05:09.101Z,100007.28
2023-02-28T17:07:35.991Z,100018.53
2023-02-28T17:10:02.902Z,100014.13
2023-02-28T17:12:29.508Z,100020.19
2023-02-28T17:14:56.307Z,100019.28
2023-02-28T17:17:23.462Z,100025.22
2023-02-28T17:19:50.273Z,100019.72
2023-02-28T17:22:16.867Z,100029.66
2023-02-28T17:24:43.963Z,100033.25
2023-02-28T17:27:10.444Z,100028.78
2023-02-28T17:29:37.030Z,100030.41
2023-02-28T17:32:16.960Z,100033.50
2023-02-28T17:34:44.231Z,100036.00
2023-02-28T17:37:11.151Z,100027.19
2023-02-28T17:39:37.806Z,100030.78
2023-02-28T17:42:04.455Z,100032.50
2023-02-28T17:44:31.286Z,100038.69
2023-02-28T17:46:58.445Z,100038.66
2023-02-28T17:49:25.549Z,100036.09
2023-02-28T17:51:52.222Z,100040.41
2023-02-28T17:54:21.365Z,100038.13
2023-02-28T17:56:47.955Z,100040.94
2023-02-28T17:59:14.840Z,100039.97
2023-02-28T18:01:42.680Z,100036.41
2023-02-28T18:04:09.422Z,100042.75
2023-02-28T18:06:36.112Z,100046.25
2023-02-28T18:09:05.942Z,100047.88
2023-02-28T18:11:32.759Z,100049.59
2023-02-28T18:13:59.537Z,100055.84
2023-02-28T18:16:27.166Z,100050.88
2023-02-28T18:18:54.185Z,100046.78
2023-02-28T18:21:21.809Z,100049.41
2023-02-28T18:23:48.749Z,100046.41
2023-02-28T18:26:15.646Z,100051.09
2023-02-28T18:28:42.488Z,100045.75
2023-02-28T18:31:09.539Z,100041.56
2023-02-28T18:33:36.556Z,100049.41
2023-02-28T18:36:03.105Z,100046.94
2023-02-28T18:38:29.922Z,100045.16
2023-02-28T18:40:56.712Z,100033.97
2023-02-28T18:43:24.073Z,100036.75
2023-02-28T18:45:51.134Z,100038.50
2023-02-28T18:48:18.513Z,100032.69
2023-02-28T18:50:45.826Z,100034.16
2023-02-28T18:53:12.746Z,100044.13
2023-02-28T18:55:39.801Z,100034.81
2023-02-28T18:58:08.192Z,100033.59
2023-02-28T19:00:41.656Z,100034.03
2023-02-28T19:03:09.582Z,100033.59
2023-02-28T19:05:37.549Z,100038.16
2023-02-28T19:08:05.174Z,100034.84
2023-02-28T19:10:32.318Z,100041.63
2023-02-28T19:12:59.451Z,100036.34
2023-02-28T19:15:26.632Z,100037.03
2023-02-28T19:17:53.825Z,100031.81
2023-02-28T19:20:21.492Z,100038.16
2023-02-28T19:22:51.184Z,100041.53
2023-02-28T19:25:18.533Z,100047.56
2023-02-28T19:27:48.347Z,100051.81
2023-02-28T19:30:15.423Z,100051.84
2023-02-28T19:32:42.542Z,100051.88
2023-02-28T19:35:12.232Z,100049.28
2023-02-28T19:37:39.346Z,100050.22
2023-02-28T19:40:06.466Z,100054.44
2023-02-28T19:42:33.634Z,100058.53
2023-02-28T19:45:01.597Z,100058.63
2023-02-28T19:47:28.678Z,100060.63
2023-02-28T19:49:56.171Z,100047.94
2023-02-28T19:52:23.620Z,100051.59
2023-02-28T19:54:53.326Z,100060.94
2023-02-28T19:57:21.060Z,100060.59
2023-02-28T19:59:48.310Z,100057.50
2023-02-28T20:02:15.878Z,100068.28
2023-02-28T20:04:42.965Z,100058.13
2023-02-28T20:07:10.284Z,100063.53
2023-02-28T20:09:38.217Z,100057.03
2023-02-28T20:12:07.243Z,100060.59
2023-02-28T20:14:38.535Z,100064.28
2023-02-28T20:17:05.489Z,100059.19
2023-02-28T20:19:32.449Z,100061.09
2023-02-28T20:21:59.406Z,100057.63
2023-02-28T20:24:27.527Z,100062.03
2023-02-28T20:26:54.795Z,100065.75
2023-02-28T20:29:24.439Z,100070.25
2023-02-28T20:31:51.755Z,100070.03
2023-02-28T20:34:19.205Z,100066.66
2023-02-28T20:36:45.695Z,100068.44
2023-02-28T20:39:12.347Z,100073.72
2023-02-28T20:41:39.378Z,100065.97
2023-02-28T20:44:06.520Z,100073.78
2023-02-28T20:46:33.326Z,100070.31
2023-02-28T20:49:00.515Z,100064.28
2023-02-28T20:51:29.672Z,100061.75
2023-02-28T20:53:56.701Z,100048.75
2023-02-28T20:56:23.656Z,100050.63
2023-02-28T20:58:50.367Z,100050.69
2023-02-28T21:01:17.036Z,100049.28
2023-02-28T21:03:43.940Z,100048.59
2023-02-28T21:06:10.824Z,100052.06
2023-02-28T21:08:37.460Z,100048.41
2023-02-28T21:11:03.908Z,100052.66
2023-02-28T21:13:31.035Z,100051.19
2023-02-28T21:15:57.611Z,100049.34
2023-02-28T21:18:24.160Z,100052.84
2023-02-28T21:20:51.119Z,100046.75
2023-02-28T21:23:17.896Z,100043.13
2023-02-28T21:25:45.692Z,100043.03
2023-02-28T21:28:12.349Z,100044.91
2023-02-28T21:30:38.901Z,100050.16
2023-02-28T21:33:05.951Z,100048.38
2023-02-28T21:35:32.946Z,100032.03
2023-02-28T21:38:00.155Z,100034.72
2023-02-28T21:40:26.628Z,100032.06
2023-02-28T21:42:54.130Z,100036.41
2023-02-28T21:45:20.565Z,100034.69
2023-02-28T21:47:47.005Z,100034.69
2023-02-28T21:50:13.437Z,100040.69
2023-02-28T21:52:40.101Z,100041.63
2023-02-28T21:55:06.750Z,100037.25
2023-02-28T21:57:33.413Z,100039.88
2023-02-28T21:59:59.881Z,100035.53
2023-02-28T22:02:26.953Z,100041.66
2023-02-28T22:04:54.426Z,100032.16
2023-02-28T22:07:20.867Z,100040.91
2023-02-28T22:09:47.328Z,100034.84
2023-02-28T22:12:13.759Z,100038.31
2023-02-28T22:14:40.438Z,100043.50
2023-02-28T22:17:07.121Z,100047.09
2023-02-28T22:19:33.540Z,100044.59
2023-02-28T22:22:00.050Z,100045.41
2023-02-28T22:24:26.512Z,100047.16
2023-02-28T22:26:52.961Z,100043.69
2023-02-28T22:29:19.898Z,100040.19
2023-02-28T22:31:46.406Z,100042.00
2023-02-28T22:34:13.359Z,100039.41
2023-02-28T22:36:39.810Z,100043.72
2023-02-28T22:39:06.204Z,100046.31
2023-02-28T22:41:32.755Z,100045.50
2023-02-28T22:43:59.180Z,100045.50
2023-02-28T22:46:27.529Z,100051.63
2023-02-28T22:48:54.078Z,100056.94
2023-02-28T22:51:20.520Z,100058.69
2023-02-28T22:53:46.899Z,100051.72
2023-02-28T22:56:13.526Z,100048.25
2023-02-28T22:58:40.252Z,100044.72
2023-02-28T23:01:06.689Z,100052.56
2023-02-28T23:03:33.206Z,100041.25
2023-02-28T23:05:59.616Z,100043.88
2023-02-28T23:08:26.032Z,100036.06
2023-02-28T23:10:53.002Z,100041.34
2023-02-28T23:13:19.483Z,100043.94
2023-02-28T23:15:45.858Z,100038.75
2023-02-28T23:18:12.610Z,100041.34
2023-02-28T23:20:39.045Z,100036.97
2023-02-28T23:23:05.702Z,100037.00
2023-02-28T23:25:32.117Z,100045.69
2023-02-28T23:27:58.660Z,100045.72
2023-02-28T23:30:25.082Z,100045.91
2023-02-28T23:32:51.515Z,100049.38
2023-02-28T23:35:17.981Z,100050.19
2023-02-28T23:37:44.398Z,100045.91
2023-02-28T23:40:13.257Z,100045.03
2023-02-28T23:42:39.683Z,100038.03
2023-02-28T23:45:06.512Z,100035.44
2023-02-28T23:47:33.068Z,100038.91
2023-02-28T23:49:59.564Z,100045.84
2023-02-28T23:52:25.998Z,100052.81
2023-02-28T23:54:52.395Z,100046.75
2023-02-28T23:57:18.865Z,100042.41
2023-02-28T23:59:45.249Z,100033.75
